createdAt,value
2018-07-24T00:00:07.171Z,99903.49
2018-07-24T00:02:33.120Z,99903.78
2018-07-24T00:04:59.078Z,99910.19
2018-07-24T00:07:25.033Z,99912.81
2018-07-24T00:09:50.975Z,99909.05
2018-07-24T00:12:16.907Z,99917.30
2018-07-24T00:14:42.853Z,99905.26
2018-07-24T00:17:08.815Z,99904.52
2018-07-24T00:19:34.754Z,99904.88
2018-07-24T00:22:00.702Z,99904.09
2018-07-24T00:24:26.665Z,99906.47
2018-07-24T00:26:52.605Z,99901.95
2018-07-24T00:29:18.574Z,99905.00
2018-07-24T00:31:44.575Z,99901.80
2018-07-24T00:34:10.524Z,99901.45
2018-07-24T00:36:36.480Z,99897.05
2018-07-24T00:39:02.451Z,99900.20
2018-07-24T00:41:28.419Z,99903.62
2018-07-24T00:43:54.384Z,99903.75
2018-07-24T00:46:20.364Z,99901.78
2018-07-24T00:48:46.326Z,99898.65
2018-07-24T00:51:12.329Z,99897.25
2018-07-24T00:53:38.307Z,99900.36
2018-07-24T00:56:04.257Z,99894.50
2018-07-24T00:58:30.204Z,99891.68
2018-07-24T01:00:57.221Z,99884.36
2018-07-24T01:03:23.180Z,99883.19
2018-07-24T01:05:49.125Z,99890.45
2018-07-24T01:08:15.082Z,99885.52
2018-07-24T01:10:41.015Z,99889.73
2018-07-24T01:13:06.999Z,99884.05
2018-07-24T01:15:32.961Z,99887.09
2018-07-24T01:17:58.922Z,99888.21
2018-07-24T01:20:24.885Z,99894.20
2018-07-24T01:22:50.835Z,99892.52
2018-07-24T01:25:16.811Z,99892.81
2018-07-24T01:27:42.749Z,99898.11
2018-07-24T01:30:08.693Z,99888.67
2018-07-24T01:32:34.673Z,99889.68
2018-07-24T01:35:00.625Z,99885.61
2018-07-24T01:37:26.621Z,99884.06
2018-07-24T01:39:52.584Z,99885.95
2018-07-24T01:42:18.539Z,99878.87
2018-07-24T01:44:44.497Z,99882.89
2018-07-24T01:47:10.467Z,99883.02
2018-07-24T01:49:36.442Z,99884.23
2018-07-24T01:52:02.419Z,99884.86
2018-07-24T01:54:28.341Z,99884.09
2018-07-24T01:56:54.299Z,99884.63
2018-07-24T01:59:20.379Z,99889.45
2018-07-24T02:01:46.359Z,99884.58
2018-07-24T02:04:12.287Z,99877.16
2018-07-24T02:06:38.215Z,99872.94
2018-07-24T02:09:04.180Z,99876.25
2018-07-24T02:11:30.195Z,99880.80
2018-07-24T02:13:56.179Z,99880.61
2018-07-24T02:16:22.124Z,99878.63
2018-07-24T02:18:48.107Z,99874.46
2018-07-24T02:21:14.091Z,99880.98
2018-07-24T02:23:40.056Z,99877.73
2018-07-24T02:26:06.021Z,99879.02
2018-07-24T02:28:32.037Z,99876.45
2018-07-24T02:30:58.002Z,99877.34
2018-07-24T02:33:23.954Z,99875.38
2018-07-24T02:35:49.899Z,99873.30
2018-07-24T02:38:15.871Z,99878.63
2018-07-24T02:40:41.846Z,99879.09
2018-07-24T02:43:07.787Z,99884.25
2018-07-24T02:45:33.737Z,99876.67
2018-07-24T02:47:59.707Z,99882.07
2018-07-24T02:50:25.653Z,99882.55
2018-07-24T02:52:51.629Z,99883.89
2018-07-24T02:55:17.600Z,99887.98
2018-07-24T02:57:43.600Z,99886.63
2018-07-24T03:00:09.575Z,99894.95
2018-07-24T03:02:35.532Z,99889.86
2018-07-24T03:05:01.501Z,99894.74
2018-07-24T03:07:27.448Z,99889.67
2018-07-24T03:09:53.388Z,99888.38
2018-07-24T03:12:19.487Z,99884.25
2018-07-24T03:14:45.527Z,99882.84
2018-07-24T03:17:11.467Z,99886.87
2018-07-24T03:19:37.412Z,99888.42
2018-07-24T03:22:03.417Z,99881.00
2018-07-24T03:24:29.445Z,99888.50
2018-07-24T03:26:55.393Z,99887.68
2018-07-24T03:29:21.381Z,99896.37
2018-07-24T03:31:48.349Z,99898.88
2018-07-24T03:34:14.296Z,99898.53
2018-07-24T03:36:40.295Z,99903.56
2018-07-24T03:39:06.267Z,99902.52
2018-07-24T03:41:32.212Z,99908.09
2018-07-24T03:43:58.143Z,99908.55
2018-07-24T03:46:24.092Z,99906.67
2018-07-24T03:48:50.062Z,99902.84
2018-07-24T03:51:16.020Z,99903.86
2018-07-24T03:53:41.984Z,99907.25
2018-07-24T03:56:07.945Z,99905.70
2018-07-24T03:58:33.875Z,99907.10
2018-07-24T04:00:59.841Z,99906.64
2018-07-24T04:03:25.804Z,99913.41
2018-07-24T04:05:51.784Z,99912.77
2018-07-24T04:08:17.769Z,99911.27
2018-07-24T04:10:43.737Z,99916.19
2018-07-24T04:13:09.681Z,99912.41
2018-07-24T04:15:35.676Z,99917.66
2018-07-24T04:18:01.636Z,99921.31
2018-07-24T04:20:27.620Z,99924.07
2018-07-24T04:22:53.590Z,99921.95
2018-07-24T04:25:19.725Z,99916.20
2018-07-24T04:27:45.697Z,99914.88
2018-07-24T04:30:11.672Z,99920.94
2018-07-24T04:32:37.647Z,99915.42
2018-07-24T04:35:03.674Z,99914.94
2018-07-24T04:37:29.651Z,99921.48
2018-07-24T04:39:55.637Z,99922.38
2018-07-24T04:42:21.587Z,99924.69
2018-07-24T04:44:47.586Z,99927.19
2018-07-24T04:47:13.595Z,99923.98
2018-07-24T04:49:39.552Z,99925.72
2018-07-24T04:52:05.493Z,99921.38
2018-07-24T04:54:31.449Z,99929.63
2018-07-24T04:56:57.399Z,99925.77
2018-07-24T04:59:23.352Z,99927.27
2018-07-24T05:01:49.282Z,99927.44
2018-07-24T05:04:15.260Z,99920.55
2018-07-24T05:06:41.208Z,99919.64
2018-07-24T05:09:07.142Z,99925.53
2018-07-24T05:11:33.107Z,99925.10
2018-07-24T05:13:59.057Z,99924.34
2018-07-24T05:16:24.996Z,99919.64
2018-07-24T05:18:50.966Z,99921.81
2018-07-24T05:21:16.945Z,99916.14
2018-07-24T05:23:42.904Z,99915.40
2018-07-24T05:26:08.905Z,99923.22
2018-07-24T05:28:34.888Z,99933.24
2018-07-24T05:31:00.862Z,99922.02
2018-07-24T05:33:26.827Z,99926.50
2018-07-24T05:35:52.809Z,99923.63
2018-07-24T05:38:18.745Z,99921.94
2018-07-24T05:40:44.728Z,99924.67
2018-07-24T05:43:10.658Z,99931.75
2018-07-24T05:45:36.601Z,99925.41
2018-07-24T05:48:03.561Z,99933.44
2018-07-24T05:50:29.905Z,99931.95
2018-07-24T05:52:55.849Z,99934.31
2018-07-24T05:55:21.810Z,99935.42
2018-07-24T05:57:47.782Z,99935.91
2018-07-24T06:00:13.777Z,99934.56
2018-07-24T06:02:39.718Z,99932.22
2018-07-24T06:05:05.698Z,99928.53
2018-07-24T06:07:31.648Z,99934.76
2018-07-24T06:09:57.605Z,99936.67
2018-07-24T06:12:23.567Z,99934.86
2018-07-24T06:14:49.520Z,99939.50
2018-07-24T06:17:15.502Z,99936.55
2018-07-24T06:19:41.443Z,99939.33
2018-07-24T06:22:07.407Z,99938.77
2018-07-24T06:24:33.369Z,99937.69
2018-07-24T06:26:59.320Z,99939.54
2018-07-24T06:29:25.310Z,99929.32
2018-07-24T06:31:51.268Z,99939.60
2018-07-24T06:34:17.259Z,99936.94
2018-07-24T06:36:43.201Z,99937.58
2018-07-24T06:39:09.138Z,99944.74
2018-07-24T06:41:35.072Z,99944.44
2018-07-24T06:44:01.099Z,99943.18
2018-07-24T06:46:27.090Z,99948.25
2018-07-24T06:48:53.085Z,99950.00
2018-07-24T06:51:19.128Z,99947.83
2018-07-24T06:53:45.060Z,99942.75
2018-07-24T06:56:11.004Z,99944.40
2018-07-24T06:58:36.937Z,99938.72
2018-07-24T07:01:02.933Z,99939.78
2018-07-24T07:03:28.971Z,99941.20
2018-07-24T07:05:54.898Z,99944.13
2018-07-24T07:08:20.832Z,99940.92
2018-07-24T07:10:46.796Z,99938.17
2018-07-24T07:13:12.914Z,99942.77
2018-07-24T07:15:39.915Z,99947.16
2018-07-24T07:18:05.875Z,99947.16
2018-07-24T07:20:31.869Z,99943.76
2018-07-24T07:22:57.892Z,99945.50
2018-07-24T07:25:23.845Z,99947.55
2018-07-24T07:27:49.830Z,99934.92
2018-07-24T07:30:15.851Z,99938.47
2018-07-24T07:32:41.846Z,99933.65
2018-07-24T07:37:41.033Z,99931.99
2018-07-24T07:40:07.029Z,99932.11
2018-07-24T07:42:33.044Z,99930.24
2018-07-24T07:44:59.039Z,99925.59
2018-07-24T07:47:25.033Z,99924.48
2018-07-24T07:49:51.018Z,99919.34
2018-07-24T07:52:17.013Z,99918.48
2018-07-24T07:54:42.969Z,99917.84
2018-07-24T07:57:08.951Z,99922.78
2018-07-24T07:59:34.913Z,99919.23
2018-07-24T08:02:00.960Z,99920.88
2018-07-24T08:04:26.973Z,99915.03
2018-07-24T08:06:52.947Z,99916.20
2018-07-24T08:09:18.934Z,99911.94
2018-07-24T08:11:44.907Z,99916.37
2018-07-24T08:14:10.950Z,99909.05
2018-07-24T08:16:36.863Z,99921.14
2018-07-24T08:19:02.804Z,99906.91
2018-07-24T08:21:28.841Z,99902.89
2018-07-24T08:23:54.838Z,99906.12
2018-07-24T08:26:20.804Z,99912.91
2018-07-24T08:28:46.849Z,99899.12
2018-07-24T08:31:12.805Z,99902.98
2018-07-24T08:33:38.807Z,99898.61
2018-07-24T08:36:04.719Z,99890.58
2018-07-24T08:38:30.729Z,99898.82
2018-07-24T08:40:56.679Z,99900.92
2018-07-24T08:43:22.689Z,99901.19
2018-07-24T08:45:48.630Z,99895.19
2018-07-24T08:48:14.610Z,99890.95
2018-07-24T08:50:40.622Z,99890.11
2018-07-24T08:53:06.712Z,99884.02
2018-07-24T08:55:33.112Z,99882.42
2018-07-24T08:57:58.545Z,99881.33
2018-07-24T09:00:24.472Z,99883.17
2018-07-24T09:02:50.446Z,99878.72
2018-07-24T09:05:16.469Z,99884.73
2018-07-24T09:07:42.463Z,99874.48
2018-07-24T09:10:08.734Z,99882.61
2018-07-24T09:12:34.673Z,99882.05
2018-07-24T09:15:00.614Z,99876.62
2018-07-24T09:17:26.572Z,99875.77
2018-07-24T09:19:52.517Z,99875.78
2018-07-24T09:22:18.470Z,99873.92
2018-07-24T09:24:44.444Z,99870.86
2018-07-24T09:27:10.397Z,99872.55
2018-07-24T09:29:36.354Z,99869.66
2018-07-24T09:34:34.656Z,99871.51
2018-07-24T09:37:00.614Z,99865.37
2018-07-24T09:39:26.568Z,99863.33
2018-07-24T09:41:52.534Z,99861.28
2018-07-24T09:44:18.475Z,99854.61
2018-07-24T09:46:44.423Z,99856.30
2018-07-24T09:49:10.376Z,99852.98
2018-07-24T09:51:36.359Z,99852.16
2018-07-24T09:54:02.382Z,99852.06
2018-07-24T09:56:28.391Z,99852.88
2018-07-24T09:58:54.324Z,99850.56
2018-07-24T10:01:20.341Z,99852.25
2018-07-24T10:03:46.373Z,99842.63
2018-07-24T10:06:12.335Z,99837.27
2018-07-24T10:08:38.388Z,99836.14
2018-07-24T10:11:04.369Z,99837.62
2018-07-24T10:13:30.361Z,99834.30
2018-07-24T10:15:56.325Z,99833.37
2018-07-24T10:18:22.332Z,99838.94
2018-07-24T10:20:48.330Z,99830.88
2018-07-24T10:23:14.259Z,99835.95
2018-07-24T10:25:40.238Z,99828.38
2018-07-24T10:28:06.341Z,99829.97
2018-07-24T10:30:32.365Z,99832.56
2018-07-24T10:32:58.309Z,99830.61
2018-07-24T10:35:24.248Z,99829.95
2018-07-24T10:37:50.214Z,99824.11
2018-07-24T10:40:16.159Z,99821.08
2018-07-24T10:42:42.180Z,99817.20
2018-07-24T10:45:08.127Z,99819.33
2018-07-24T10:47:34.079Z,99813.40
2018-07-24T10:50:00.078Z,99815.36
2018-07-24T10:52:26.040Z,99811.09
2018-07-24T10:54:52.047Z,99811.93
2018-07-24T10:57:18.007Z,99808.41
2018-07-24T10:59:43.990Z,99804.53
2018-07-24T11:02:09.995Z,99798.06
2018-07-24T11:04:35.960Z,99799.94
2018-07-24T11:07:02.038Z,99802.52
2018-07-24T11:09:28.032Z,99792.27
2018-07-24T11:11:54.021Z,99787.19
2018-07-24T11:14:20.110Z,99792.36
2018-07-24T11:16:46.061Z,99791.06
2018-07-24T11:19:12.006Z,99782.73
2018-07-24T11:21:38.012Z,99780.89
2018-07-24T11:24:04.038Z,99779.33
2018-07-24T11:26:30.051Z,99772.02
2018-07-24T11:28:56.041Z,99776.90
2018-07-24T11:31:21.994Z,99773.13
2018-07-24T11:33:47.944Z,99773.31
2018-07-24T11:36:13.903Z,99772.30
2018-07-24T11:38:39.908Z,99780.42
2018-07-24T11:41:05.923Z,99770.72
2018-07-24T11:43:31.924Z,99769.03
2018-07-24T11:45:57.910Z,99759.45
2018-07-24T11:48:23.854Z,99763.69
2018-07-24T11:50:49.876Z,99766.19
2018-07-24T11:53:15.844Z,99765.08
2018-07-24T11:55:41.830Z,99757.69
2018-07-24T11:58:07.898Z,99754.17
2018-07-24T12:00:34.514Z,99758.05
2018-07-24T12:03:00.497Z,99749.27
2018-07-24T12:05:26.492Z,99746.77
2018-07-24T12:07:52.526Z,99744.91
2018-07-24T12:10:18.559Z,99739.83
2018-07-24T12:12:44.661Z,99744.55
2018-07-24T12:15:11.973Z,99738.09
2018-07-24T12:17:37.998Z,99739.98
2018-07-24T12:20:04.092Z,99732.77
2018-07-24T12:22:31.042Z,99712.06
2018-07-24T12:24:57.108Z,99740.39
2018-07-24T12:27:23.059Z,99742.16
2018-07-24T12:29:49.039Z,99730.39
2018-07-24T12:32:15.954Z,99731.63
2018-07-24T12:34:41.924Z,99732.77
2018-07-24T12:37:07.938Z,99734.06
2018-07-24T12:39:33.905Z,99730.39
2018-07-24T12:41:59.871Z,99724.09
2018-07-24T12:44:25.839Z,99733.80
2018-07-24T12:46:51.797Z,99732.98
2018-07-24T12:49:17.788Z,99729.82
2018-07-24T12:51:43.760Z,99728.83
2018-07-24T12:54:09.716Z,99724.92
2018-07-24T12:56:35.762Z,99721.32
2018-07-24T12:59:01.711Z,99726.15
2018-07-24T13:01:27.687Z,99721.66
2018-07-24T13:03:53.784Z,99716.12
2018-07-24T13:06:19.776Z,99716.59
2018-07-24T13:08:45.800Z,99711.42
2018-07-24T13:11:11.809Z,99712.20
2018-07-24T13:13:37.755Z,99706.42
2018-07-24T13:16:04.333Z,99706.25
2018-07-24T13:18:30.313Z,99703.97
2018-07-24T13:20:56.309Z,99702.11
2018-07-24T13:23:22.309Z,99701.58
2018-07-24T13:25:48.325Z,99695.01
2018-07-24T13:28:14.283Z,99691.97
2018-07-24T13:30:40.268Z,99693.81
2018-07-24T13:33:06.213Z,99695.49
2018-07-24T13:35:32.168Z,99687.63
2018-07-24T13:37:58.131Z,99684.97
2018-07-24T13:40:24.069Z,99684.95
2018-07-24T13:42:50.004Z,99676.64
2018-07-24T13:45:15.960Z,99669.25
2018-07-24T13:47:41.934Z,99667.41
2018-07-24T13:50:08.939Z,99669.25
2018-07-24T13:52:34.891Z,99672.76
2018-07-24T13:55:00.911Z,99666.03
2018-07-24T13:57:26.868Z,99665.48
2018-07-24T13:59:52.811Z,99665.00
2018-07-24T14:02:18.783Z,99664.28
2018-07-24T14:04:44.769Z,99663.89
2018-07-24T14:07:10.750Z,99657.64
2018-07-24T14:09:36.703Z,99660.61
2018-07-24T14:12:02.652Z,99663.35
2018-07-24T14:14:28.625Z,99660.95
2018-07-24T14:16:54.598Z,99660.95
2018-07-24T14:19:20.592Z,99655.42
2018-07-24T14:21:46.753Z,99657.27
2018-07-24T14:24:12.645Z,99656.72
2018-07-24T14:26:38.626Z,99656.72
2018-07-24T14:29:04.599Z,99651.16
2018-07-24T14:31:30.610Z,99654.13
2018-07-24T14:33:56.572Z,99647.22
2018-07-24T14:36:22.592Z,99636.95
2018-07-24T14:38:48.556Z,99638.08
2018-07-24T14:41:14.518Z,99641.61
2018-07-24T14:43:40.477Z,99629.84
2018-07-24T14:46:06.601Z,99632.88
2018-07-24T14:48:32.581Z,99636.30
2018-07-24T14:50:58.536Z,99630.33
2018-07-24T14:53:24.527Z,99627.91
2018-07-24T14:55:50.528Z,99624.58
2018-07-24T14:58:16.520Z,99626.45
2018-07-24T15:00:42.508Z,99628.48
2018-07-24T15:03:09.065Z,99624.67
2018-07-24T15:05:35.027Z,99622.67
2018-07-24T15:08:01.034Z,99613.11
2018-07-24T15:10:27.117Z,99620.73
2018-07-24T15:12:53.101Z,99616.03
2018-07-24T15:15:19.061Z,99618.52
2018-07-24T15:17:45.056Z,99613.34
2018-07-24T15:20:11.130Z,99610.41
2018-07-24T15:22:38.500Z,99612.59
2018-07-24T15:25:06.509Z,99608.89
2018-07-24T15:27:32.529Z,99614.16
2018-07-24T15:29:58.523Z,99611.13
2018-07-24T15:32:24.507Z,99599.20
2018-07-24T15:34:50.584Z,99608.18
2018-07-24T15:37:16.564Z,99599.28
2018-07-24T15:39:42.526Z,99607.59
2018-07-24T15:42:08.604Z,99603.01
2018-07-24T15:44:34.546Z,99598.29
2018-07-24T15:47:00.564Z,99593.67
2018-07-24T15:59:32.225Z,99584.45
2018-07-24T16:01:58.298Z,99588.95
2018-07-24T16:04:24.316Z,99592.83
2018-07-24T16:06:50.295Z,99590.80
2018-07-24T16:09:16.656Z,99591.86
2018-07-24T16:11:42.634Z,99585.14
2018-07-24T16:14:09.681Z,99585.23
2018-07-24T16:16:35.823Z,99584.69
2018-07-24T16:19:01.793Z,99583.78
2018-07-24T16:21:27.730Z,99586.79
2018-07-24T16:23:53.744Z,99585.04
2018-07-24T16:26:19.709Z,99581.19
2018-07-24T16:28:45.713Z,99582.65
2018-07-24T16:31:11.675Z,99587.17
2018-07-24T16:33:37.674Z,99585.88
2018-07-24T16:53:49.270Z,99582.06
2018-07-24T17:01:22.586Z,99582.91
2018-07-24T17:03:48.559Z,99589.95
2018-07-24T17:06:14.517Z,99582.87
2018-07-24T17:08:41.280Z,99580.42
2018-07-24T17:11:07.310Z,99586.49
2018-07-24T17:13:33.347Z,99587.48
2018-07-24T17:15:59.288Z,99582.59
2018-07-24T17:18:25.255Z,99589.81
2018-07-24T17:20:51.192Z,99587.04
2018-07-24T17:23:17.766Z,99593.50
2018-07-24T17:25:43.728Z,99593.30
2018-07-24T17:28:09.745Z,99597.13
2018-07-24T17:30:35.699Z,99594.25
2018-07-24T17:33:02.533Z,99590.02
2018-07-24T17:38:02.296Z,99591.90
2018-07-24T17:40:28.275Z,99595.23
2018-07-24T17:42:54.344Z,99595.84
2018-07-24T17:45:20.319Z,99595.58
2018-07-24T17:47:46.349Z,99606.28
2018-07-24T17:50:12.350Z,99602.66
2018-07-24T17:55:15.559Z,99603.34
2018-07-24T17:57:41.501Z,99604.99
2018-07-24T18:00:08.215Z,99611.30
2018-07-24T18:07:40.631Z,99606.58
2018-07-24T18:10:06.688Z,99608.52
2018-07-24T18:12:32.666Z,99610.71
2018-07-24T18:14:58.707Z,99612.56
2018-07-24T18:17:24.774Z,99615.70
2018-07-24T18:19:50.765Z,99614.05
2018-07-24T18:22:16.721Z,99616.98
2018-07-24T18:24:42.831Z,99612.40
2018-07-24T18:27:08.832Z,99617.38
2018-07-24T18:29:34.993Z,99617.38
2018-07-24T18:32:03.134Z,99621.09
2018-07-24T18:34:29.137Z,99618.86
2018-07-24T18:36:55.135Z,99621.19
2018-07-24T18:39:21.147Z,99619.41
2018-07-24T18:41:47.847Z,99624.58
2018-07-24T18:44:13.955Z,99625.97
2018-07-24T18:46:40.107Z,99623.97
2018-07-24T18:49:06.108Z,99623.97
2018-07-24T18:51:32.796Z,99625.41
2018-07-24T18:53:58.820Z,99623.12
2018-07-24T18:56:24.942Z,99624.12
2018-07-24T18:58:51.029Z,99626.26
2018-07-24T19:01:17.040Z,99624.22
2018-07-24T19:03:43.031Z,99627.74
2018-07-24T19:06:09.890Z,99634.20
2018-07-24T19:08:35.857Z,99630.42
2018-07-24T19:11:01.898Z,99630.52
2018-07-24T19:13:27.959Z,99631.97
2018-07-24T19:15:53.999Z,99634.66
2018-07-24T19:18:20.087Z,99633.75
2018-07-24T19:20:46.108Z,99640.86
2018-07-24T19:23:12.186Z,99637.34
2018-07-24T19:25:38.836Z,99642.90
2018-07-24T19:28:06.167Z,99647.32
2018-07-24T19:30:32.248Z,99653.79
2018-07-24T19:32:58.408Z,99654.33
2018-07-24T19:35:24.779Z,99654.72
2018-07-24T19:37:50.869Z,99659.14
2018-07-24T19:40:18.938Z,99660.05
2018-07-24T19:45:19.525Z,99664.31
2018-07-24T19:47:49.460Z,99666.52
2018-07-24T19:50:15.497Z,99666.91
2018-07-24T19:52:41.648Z,99667.91
2018-07-24T19:55:08.549Z,99671.16
2018-07-24T19:57:34.628Z,99670.95
2018-07-24T20:00:00.617Z,99673.95
2018-07-24T20:02:26.681Z,99673.69
2018-07-24T20:04:53.623Z,99672.95
2018-07-24T20:07:19.798Z,99679.05
2018-07-24T20:09:45.926Z,99679.05
2018-07-24T20:12:11.950Z,99683.11
2018-07-24T20:14:38.001Z,99678.84
2018-07-24T20:17:06.193Z,99681.61
2018-07-24T20:19:32.295Z,99685.86
2018-07-24T20:21:58.297Z,99690.37
2018-07-24T20:24:24.354Z,99691.12
2018-07-24T20:26:50.371Z,99697.85
2018-07-24T20:29:16.722Z,99695.09
2018-07-24T20:31:42.940Z,99701.07
2018-07-24T20:34:08.968Z,99705.39
2018-07-24T20:36:35.012Z,99700.77
2018-07-24T20:39:01.405Z,99709.63
2018-07-24T20:41:27.447Z,99700.41
2018-07-24T20:43:57.038Z,99695.23
2018-07-24T20:46:23.302Z,99706.87
2018-07-24T20:48:49.356Z,99702.72
2018-07-24T20:51:15.468Z,99703.71
2018-07-24T20:53:41.455Z,99697.52
2018-07-24T20:56:07.476Z,99705.81
2018-07-24T20:58:33.491Z,99704.78
2018-07-24T21:00:59.589Z,99700.83
2018-07-24T21:03:25.634Z,99696.42
2018-07-24T21:05:51.671Z,99700.57
2018-07-24T21:08:17.648Z,99698.70
2018-07-24T21:10:44.604Z,99693.88
2018-07-24T21:13:10.688Z,99689.34
2018-07-24T21:15:36.689Z,99699.14
2018-07-24T21:18:02.729Z,99693.75
2018-07-24T21:20:28.738Z,99695.83
2018-07-24T21:22:54.699Z,99693.50
2018-07-24T21:25:20.802Z,99696.02
2018-07-24T21:27:46.825Z,99698.09
2018-07-24T21:30:12.855Z,99700.84
2018-07-24T21:32:38.845Z,99700.84
2018-07-24T21:35:04.839Z,99701.63
2018-07-24T21:37:30.900Z,99707.98
2018-07-24T21:39:56.893Z,99705.64
2018-07-24T21:42:22.943Z,99710.20
2018-07-24T21:44:48.967Z,99712.10
2018-07-24T21:47:14.988Z,99709.48
2018-07-24T21:49:41.037Z,99708.73
2018-07-24T21:52:07.074Z,99710.73
2018-07-24T21:54:33.119Z,99720.73
2018-07-24T21:56:59.136Z,99707.79
2018-07-24T21:59:25.110Z,99715.42
2018-07-24T22:01:51.109Z,99714.33
2018-07-24T22:04:17.146Z,99715.24
2018-07-24T22:06:43.178Z,99715.89
2018-07-24T22:09:09.207Z,99716.55
2018-07-24T22:11:35.191Z,99711.19
2018-07-24T22:14:01.201Z,99713.23
2018-07-24T22:16:27.210Z,99712.23
2018-07-24T22:18:53.218Z,99711.55
2018-07-24T22:21:19.180Z,99708.73
2018-07-24T22:23:45.201Z,99710.64
2018-07-24T22:26:11.199Z,99711.33
2018-07-24T22:28:37.212Z,99713.76
2018-07-24T22:31:03.198Z,99709.75
2018-07-24T22:33:29.190Z,99707.40
2018-07-24T22:35:55.177Z,99709.45
2018-07-24T22:38:21.167Z,99706.25
2018-07-24T22:40:47.155Z,99706.75
2018-07-24T22:43:13.219Z,99707.09
2018-07-24T22:45:39.250Z,99709.30
2018-07-24T22:48:05.294Z,99713.23
2018-07-24T22:50:31.439Z,99719.17
2018-07-24T22:52:57.433Z,99721.67
2018-07-24T22:55:23.421Z,99720.80
2018-07-24T22:57:49.430Z,99724.50
2018-07-24T23:00:15.454Z,99718.23
2018-07-24T23:02:41.477Z,99721.47
2018-07-24T23:05:07.483Z,99718.06
2018-07-24T23:07:33.443Z,99718.23
2018-07-24T23:09:59.457Z,99715.89
2018-07-24T23:12:25.531Z,99722.09
2018-07-24T23:14:51.564Z,99721.25
2018-07-24T23:17:17.570Z,99720.78
2018-07-24T23:19:43.542Z,99722.61
2018-07-24T23:22:09.545Z,99724.92
2018-07-24T23:24:35.538Z,99727.27
2018-07-24T23:29:33.927Z,99720.34
2018-07-24T23:31:59.930Z,99723.23
2018-07-24T23:34:25.936Z,99724.92
2018-07-24T23:36:51.902Z,99718.06
2018-07-24T23:39:17.882Z,99722.20
2018-07-24T23:41:43.903Z,99719.75
2018-07-24T23:44:09.899Z,99722.75
2018-07-24T23:46:35.935Z,99720.80
2018-07-24T23:49:01.943Z,99724.92
2018-07-24T23:51:27.914Z,99718.72
2018-07-24T23:53:53.908Z,99722.17
2018-07-24T23:56:20.727Z,99717.73
2018-07-24T23:58:46.771Z,99728.36
